sensor_id;sensor_type;location;lat;lon;timestamp;temperature;humidity
790;DHT22;378;48.844;9.156;2024-01-30T00:01:01;4.40;99.90
790;DHT22;378;48.844;9.156;2024-01-30T00:03:29;4.50;99.90
790;DHT22;378;48.844;9.156;2024-01-30T00:05:56;4.50;99.90
790;DHT22;378;48.844;9.156;2024-01-30T00:08:23;4.60;99.90
790;DHT22;378;48.844;9.156;2024-01-30T00:10:50;4.70;99.90
790;DHT22;378;48.844;9.156;2024-01-30T00:13:16;4.70;99.90
790;DHT22;378;48.844;9.156;2024-01-30T00:15:45;4.70;99.90
790;DHT22;378;48.844;9.156;2024-01-30T00:18:12;4.60;99.90
790;DHT22;378;48.844;9.156;2024-01-30T00:20:40;4.60;99.90
790;DHT22;378;48.844;9.156;2024-01-30T00:23:10;4.60;99.90
790;DHT22;378;48.844;9.156;2024-01-30T00:25:37;4.60;99.90
790;DHT22;378;48.844;9.156;2024-01-30T00:28:04;4.50;99.90
790;DHT22;378;48.844;9.156;2024-01-30T00:30:30;4.50;99.90
790;DHT22;378;48.844;9.156;2024-01-30T00:32:57;4.40;99.90
790;DHT22;378;48.844;9.156;2024-01-30T00:35:24;4.50;99.90
790;DHT22;378;48.844;9.156;2024-01-30T00:37:52;4.40;99.90
790;DHT22;378;48.844;9.156;2024-01-30T00:40:19;4.50;99.90
790;DHT22;378;48.844;9.156;2024-01-30T00:42:46;4.40;99.90
790;DHT22;378;48.844;9.156;2024-01-30T00:45:13;4.50;99.90
790;DHT22;378;48.844;9.156;2024-01-30T00:47:40;4.60;99.90
790;DHT22;378;48.844;9.156;2024-01-30T00:50:07;4.50;99.90
790;DHT22;378;48.844;9.156;2024-01-30T00:52:34;4.50;99.90
790;DHT22;378;48.844;9.156;2024-01-30T00:55:03;4.40;99.90
790;DHT22;378;48.844;9.156;2024-01-30T00:57:30;4.40;99.90
790;DHT22;378;48.844;9.156;2024-01-30T00:59:57;4.40;99.90
790;DHT22;378;48.844;9.156;2024-01-30T01:02:24;4.30;99.90
790;DHT22;378;48.844;9.156;2024-01-30T01:04:51;4.30;99.90
790;DHT22;378;48.844;9.156;2024-01-30T01:07:17;4.10;99.90
790;DHT22;378;48.844;9.156;2024-01-30T01:09:44;4.20;99.90
790;DHT22;378;48.844;9.156;2024-01-30T01:12:12;4.10;99.90
790;DHT22;378;48.844;9.156;2024-01-30T01:14:39;4.10;99.90
790;DHT22;378;48.844;9.156;2024-01-30T01:17:16;4.00;99.90
790;DHT22;378;48.844;9.156;2024-01-30T01:19:45;3.90;99.90
790;DHT22;378;48.844;9.156;2024-01-30T01:22:12;4.00;99.90
790;DHT22;378;48.844;9.156;2024-01-30T01:24:44;3.90;99.90
790;DHT22;378;48.844;9.156;2024-01-30T01:27:13;4.00;99.90
790;DHT22;378;48.844;9.156;2024-01-30T01:29:41;4.00;99.90
790;DHT22;378;48.844;9.156;2024-01-30T01:32:17;4.10;99.90
790;DHT22;378;48.844;9.156;2024-01-30T01:34:48;4.10;99.90
790;DHT22;378;48.844;9.156;2024-01-30T01:37:15;4.10;99.90
790;DHT22;378;48.844;9.156;2024-01-30T01:39:41;4.10;99.90
790;DHT22;378;48.844;9.156;2024-01-30T01:42:12;4.00;99.90
790;DHT22;378;48.844;9.156;2024-01-30T01:44:39;4.10;99.90
790;DHT22;378;48.844;9.156;2024-01-30T01:47:09;4.00;99.90
790;DHT22;378;48.844;9.156;2024-01-30T01:49:36;4.00;99.90
790;DHT22;378;48.844;9.156;2024-01-30T01:52:04;3.90;99.90
790;DHT22;378;48.844;9.156;2024-01-30T01:54:32;4.00;99.90
790;DHT22;378;48.844;9.156;2024-01-30T01:57:02;3.90;99.90
790;DHT22;378;48.844;9.156;2024-01-30T01:59:31;3.90;99.90
790;DHT22;378;48.844;9.156;2024-01-30T02:02:08;3.90;99.90
790;DHT22;378;48.844;9.156;2024-01-30T02:04:38;3.90;99.90
790;DHT22;378;48.844;9.156;2024-01-30T02:07:07;3.90;99.90
790;DHT22;378;48.844;9.156;2024-01-30T02:09:34;3.80;99.90
790;DHT22;378;48.844;9.156;2024-01-30T02:12:04;3.80;99.90
790;DHT22;378;48.844;9.156;2024-01-30T02:14:33;3.90;99.90
790;DHT22;378;48.844;9.156;2024-01-30T02:17:00;3.90;99.90
790;DHT22;378;48.844;9.156;2024-01-30T02:19:26;3.80;99.90
790;DHT22;378;48.844;9.156;2024-01-30T02:22:01;3.80;99.90
790;DHT22;378;48.844;9.156;2024-01-30T02:24:27;3.80;99.90
790;DHT22;378;48.844;9.156;2024-01-30T02:26:56;3.70;99.90
790;DHT22;378;48.844;9.156;2024-01-30T02:29:23;3.80;99.90
790;DHT22;378;48.844;9.156;2024-01-30T02:31:53;3.80;99.90
790;DHT22;378;48.844;9.156;2024-01-30T02:37:22;3.80;99.90
790;DHT22;378;48.844;9.156;2024-01-30T02:39:56;3.70;99.90
790;DHT22;378;48.844;9.156;2024-01-30T02:42:34;3.60;99.90
790;DHT22;378;48.844;9.156;2024-01-30T02:45:11;3.60;99.90
790;DHT22;378;48.844;9.156;2024-01-30T02:47:40;3.60;99.90
790;DHT22;378;48.844;9.156;2024-01-30T02:50:18;3.60;99.90
790;DHT22;378;48.844;9.156;2024-01-30T02:53:09;3.60;99.90
790;DHT22;378;48.844;9.156;2024-01-30T02:55:43;3.60;99.90
790;DHT22;378;48.844;9.156;2024-01-30T02:58:10;3.60;99.90
790;DHT22;378;48.844;9.156;2024-01-30T03:00:43;3.60;99.90
790;DHT22;378;48.844;9.156;2024-01-30T03:03:12;3.60;99.90
790;DHT22;378;48.844;9.156;2024-01-30T03:05:44;3.60;99.90
790;DHT22;378;48.844;9.156;2024-01-30T03:08:18;3.60;99.90
790;DHT22;378;48.844;9.156;2024-01-30T03:10:56;3.60;99.90
790;DHT22;378;48.844;9.156;2024-01-30T03:13:33;3.50;99.90
790;DHT22;378;48.844;9.156;2024-01-30T03:16:06;3.50;99.90
790;DHT22;378;48.844;9.156;2024-01-30T03:18:53;3.50;99.90
790;DHT22;378;48.844;9.156;2024-01-30T03:21:32;3.50;99.90
790;DHT22;378;48.844;9.156;2024-01-30T03:24:13;3.50;99.90
790;DHT22;378;48.844;9.156;2024-01-30T03:26:45;3.50;99.90
790;DHT22;378;48.844;9.156;2024-01-30T03:29:27;3.40;99.90
790;DHT22;378;48.844;9.156;2024-01-30T03:31:54;3.40;99.90
790;DHT22;378;48.844;9.156;2024-01-30T03:34:33;3.40;99.90
790;DHT22;378;48.844;9.156;2024-01-30T03:37:09;3.40;99.90
790;DHT22;378;48.844;9.156;2024-01-30T03:39:48;3.40;99.90
790;DHT22;378;48.844;9.156;2024-01-30T03:42:25;3.40;99.90
790;DHT22;378;48.844;9.156;2024-01-30T03:44:52;3.30;99.90
790;DHT22;378;48.844;9.156;2024-01-30T03:47:20;3.30;99.90
790;DHT22;378;48.844;9.156;2024-01-30T03:49:58;3.30;99.90
790;DHT22;378;48.844;9.156;2024-01-30T03:52:30;3.30;99.90
790;DHT22;378;48.844;9.156;2024-01-30T03:54:58;3.30;99.90
790;DHT22;378;48.844;9.156;2024-01-30T03:57:33;3.20;99.90
790;DHT22;378;48.844;9.156;2024-01-30T04:00:17;3.30;99.90
790;DHT22;378;48.844;9.156;2024-01-30T04:02:55;3.30;99.90
790;DHT22;378;48.844;9.156;2024-01-30T04:05:27;3.30;99.90
790;DHT22;378;48.844;9.156;2024-01-30T04:08:10;3.20;99.90
790;DHT22;378;48.844;9.156;2024-01-30T04:10:51;3.20;99.90
790;DHT22;378;48.844;9.156;2024-01-30T04:13:24;3.20;99.90
790;DHT22;378;48.844;9.156;2024-01-30T04:15:56;3.20;99.90
790;DHT22;378;48.844;9.156;2024-01-30T04:18:23;3.20;99.90
790;DHT22;378;48.844;9.156;2024-01-30T04:20:56;3.20;99.90
790;DHT22;378;48.844;9.156;2024-01-30T04:23:31;3.10;99.90
790;DHT22;378;48.844;9.156;2024-01-30T04:26:08;3.20;99.90
790;DHT22;378;48.844;9.156;2024-01-30T04:28:35;3.20;99.90
790;DHT22;378;48.844;9.156;2024-01-30T04:31:08;3.20;99.90
790;DHT22;378;48.844;9.156;2024-01-30T04:33:37;3.10;99.90
790;DHT22;378;48.844;9.156;2024-01-30T04:36:08;3.10;99.90
790;DHT22;378;48.844;9.156;2024-01-30T04:38:36;3.10;99.90
790;DHT22;378;48.844;9.156;2024-01-30T04:41:09;3.10;99.90
790;DHT22;378;48.844;9.156;2024-01-30T04:43:48;3.10;99.90
790;DHT22;378;48.844;9.156;2024-01-30T04:46:30;3.10;99.90
790;DHT22;378;48.844;9.156;2024-01-30T04:48:59;3.00;99.90
790;DHT22;378;48.844;9.156;2024-01-30T04:51:30;3.10;99.90
790;DHT22;378;48.844;9.156;2024-01-30T04:54:00;3.10;99.90
790;DHT22;378;48.844;9.156;2024-01-30T04:56:38;3.20;99.90
790;DHT22;378;48.844;9.156;2024-01-30T04:59:21;3.20;99.90
790;DHT22;378;48.844;9.156;2024-01-30T05:01:51;3.20;99.90
790;DHT22;378;48.844;9.156;2024-01-30T05:04:35;3.20;99.90
790;DHT22;378;48.844;9.156;2024-01-30T05:07:12;3.20;99.90
790;DHT22;378;48.844;9.156;2024-01-30T05:09:41;3.20;99.90
790;DHT22;378;48.844;9.156;2024-01-30T05:12:20;3.20;99.90
790;DHT22;378;48.844;9.156;2024-01-30T05:14:49;3.10;99.90
790;DHT22;378;48.844;9.156;2024-01-30T05:17:15;3.10;99.90
790;DHT22;378;48.844;9.156;2024-01-30T05:19:54;3.10;99.90
790;DHT22;378;48.844;9.156;2024-01-30T05:22:39;3.10;99.90
790;DHT22;378;48.844;9.156;2024-01-30T05:25:17;3.10;99.90
790;DHT22;378;48.844;9.156;2024-01-30T05:28:10;3.10;99.90
790;DHT22;378;48.844;9.156;2024-01-30T05:30:48;3.10;99.90
790;DHT22;378;48.844;9.156;2024-01-30T05:33:27;3.20;99.90
790;DHT22;378;48.844;9.156;2024-01-30T05:36:03;3.20;99.90
790;DHT22;378;48.844;9.156;2024-01-30T05:38:53;3.20;99.90
790;DHT22;378;48.844;9.156;2024-01-30T05:41:30;3.20;99.90
790;DHT22;378;48.844;9.156;2024-01-30T05:47:04;3.20;99.90
790;DHT22;378;48.844;9.156;2024-01-30T05:49:41;3.20;99.90
790;DHT22;378;48.844;9.156;2024-01-30T05:52:10;3.20;99.90
790;DHT22;378;48.844;9.156;2024-01-30T05:54:44;3.10;99.90
790;DHT22;378;48.844;9.156;2024-01-30T05:57:11;3.10;99.90
790;DHT22;378;48.844;9.156;2024-01-30T05:59:38;3.10;99.90
790;DHT22;378;48.844;9.156;2024-01-30T06:02:06;3.10;99.90
790;DHT22;378;48.844;9.156;2024-01-30T06:04:36;3.10;99.90
790;DHT22;378;48.844;9.156;2024-01-30T06:07:06;3.20;99.90
790;DHT22;378;48.844;9.156;2024-01-30T06:09:37;3.10;99.90
790;DHT22;378;48.844;9.156;2024-01-30T06:12:06;3.10;99.90
790;DHT22;378;48.844;9.156;2024-01-30T06:14:33;3.10;99.90
790;DHT22;378;48.844;9.156;2024-01-30T06:17:00;3.10;99.90
790;DHT22;378;48.844;9.156;2024-01-30T06:19:31;3.10;99.90
790;DHT22;378;48.844;9.156;2024-01-30T06:22:05;3.20;99.90
790;DHT22;378;48.844;9.156;2024-01-30T06:24:34;3.10;99.90
790;DHT22;378;48.844;9.156;2024-01-30T06:28:15;3.10;99.90
790;DHT22;378;48.844;9.156;2024-01-30T06:30:12;3.10;99.90
790;DHT22;378;48.844;9.156;2024-01-30T06:32:40;3.00;99.90
790;DHT22;378;48.844;9.156;2024-01-30T06:35:08;3.10;99.90
790;DHT22;378;48.844;9.156;2024-01-30T06:37:36;3.00;99.90
790;DHT22;378;48.844;9.156;2024-01-30T06:40:03;3.00;99.90
790;DHT22;378;48.844;9.156;2024-01-30T06:42:32;3.00;99.90
790;DHT22;378;48.844;9.156;2024-01-30T06:45:13;3.00;99.90
790;DHT22;378;48.844;9.156;2024-01-30T06:47:40;3.00;99.90
790;DHT22;378;48.844;9.156;2024-01-30T07:11:44;2.90;99.90
790;DHT22;378;48.844;9.156;2024-01-30T07:14:14;2.90;99.90
790;DHT22;378;48.844;9.156;2024-01-30T07:16:40;2.90;99.90
790;DHT22;378;48.844;9.156;2024-01-30T07:19:09;2.80;99.90
790;DHT22;378;48.844;9.156;2024-01-30T07:21:42;2.80;99.90
790;DHT22;378;48.844;9.156;2024-01-30T07:24:12;2.80;99.90
790;DHT22;378;48.844;9.156;2024-01-30T07:26:39;2.80;99.90
790;DHT22;378;48.844;9.156;2024-01-30T07:29:08;2.80;99.90
790;DHT22;378;48.844;9.156;2024-01-30T07:31:34;2.90;99.90
790;DHT22;378;48.844;9.156;2024-01-30T07:34:01;3.00;99.90
790;DHT22;378;48.844;9.156;2024-01-30T07:36:31;2.90;99.90
790;DHT22;378;48.844;9.156;2024-01-30T07:39:00;2.90;99.90
790;DHT22;378;48.844;9.156;2024-01-30T07:41:32;2.90;99.90
790;DHT22;378;48.844;9.156;2024-01-30T07:44:03;2.90;99.90
790;DHT22;378;48.844;9.156;2024-01-30T07:46:31;3.00;99.90
790;DHT22;378;48.844;9.156;2024-01-30T07:48:58;3.10;99.90
790;DHT22;378;48.844;9.156;2024-01-30T07:51:37;3.10;99.90
790;DHT22;378;48.844;9.156;2024-01-30T07:54:08;3.10;99.90
790;DHT22;378;48.844;9.156;2024-01-30T07:56:38;3.20;99.90
790;DHT22;378;48.844;9.156;2024-01-30T07:59:05;3.30;99.90
790;DHT22;378;48.844;9.156;2024-01-30T08:01:36;3.40;99.90
790;DHT22;378;48.844;9.156;2024-01-30T08:04:03;3.40;99.90
790;DHT22;378;48.844;9.156;2024-01-30T08:06:33;3.50;99.90
790;DHT22;378;48.844;9.156;2024-01-30T08:09:14;3.70;99.90
790;DHT22;378;48.844;9.156;2024-01-30T08:11:44;3.70;99.90
790;DHT22;378;48.844;9.156;2024-01-30T08:14:15;3.80;99.90
790;DHT22;378;48.844;9.156;2024-01-30T08:16:52;3.80;99.90
790;DHT22;378;48.844;9.156;2024-01-30T08:19:21;3.80;99.90
790;DHT22;378;48.844;9.156;2024-01-30T08:21:48;3.90;99.90
790;DHT22;378;48.844;9.156;2024-01-30T08:27:17;4.00;99.90
790;DHT22;378;48.844;9.156;2024-01-30T08:29:57;4.10;99.90
790;DHT22;378;48.844;9.156;2024-01-30T08:32:33;4.10;99.90
790;DHT22;378;48.844;9.156;2024-01-30T08:35:12;4.20;99.90
790;DHT22;378;48.844;9.156;2024-01-30T08:37:52;4.30;99.90
790;DHT22;378;48.844;9.156;2024-01-30T08:40:32;4.30;99.90
790;DHT22;378;48.844;9.156;2024-01-30T08:43:07;4.40;99.90
790;DHT22;378;48.844;9.156;2024-01-30T08:45:49;4.50;99.90
790;DHT22;378;48.844;9.156;2024-01-30T08:48:33;4.50;99.90
790;DHT22;378;48.844;9.156;2024-01-30T08:51:10;4.60;99.90
790;DHT22;378;48.844;9.156;2024-01-30T08:53:54;4.70;99.90
790;DHT22;378;48.844;9.156;2024-01-30T08:56:35;4.70;99.90
790;DHT22;378;48.844;9.156;2024-01-30T08:59:02;4.80;99.90
790;DHT22;378;48.844;9.156;2024-01-30T09:01:29;4.80;99.90
790;DHT22;378;48.844;9.156;2024-01-30T09:04:21;4.90;99.90
790;DHT22;378;48.844;9.156;2024-01-30T09:07:02;4.90;99.90
790;DHT22;378;48.844;9.156;2024-01-30T09:09:47;5.00;99.90
790;DHT22;378;48.844;9.156;2024-01-30T09:12:20;5.00;99.90
790;DHT22;378;48.844;9.156;2024-01-30T09:14:49;5.10;99.90
790;DHT22;378;48.844;9.156;2024-01-30T09:17:27;5.10;99.90
790;DHT22;378;48.844;9.156;2024-01-30T09:19:57;5.10;99.90
790;DHT22;378;48.844;9.156;2024-01-30T09:22:27;5.20;99.90
790;DHT22;378;48.844;9.156;2024-01-30T09:25:03;5.20;99.90
790;DHT22;378;48.844;9.156;2024-01-30T09:44:30;5.70;99.90
790;DHT22;378;48.844;9.156;2024-01-30T09:46:57;5.80;99.90
790;DHT22;378;48.844;9.156;2024-01-30T09:49:29;5.90;99.90
790;DHT22;378;48.844;9.156;2024-01-30T09:51:57;5.90;99.90
790;DHT22;378;48.844;9.156;2024-01-30T09:54:24;6.00;99.90
790;DHT22;378;48.844;9.156;2024-01-30T09:56:51;6.10;99.90
790;DHT22;378;48.844;9.156;2024-01-30T09:59:18;6.20;99.90
790;DHT22;378;48.844;9.156;2024-01-30T10:01:47;6.30;99.90
790;DHT22;378;48.844;9.156;2024-01-30T10:04:14;6.40;99.90
790;DHT22;378;48.844;9.156;2024-01-30T10:06:41;6.50;99.90
790;DHT22;378;48.844;9.156;2024-01-30T10:09:08;6.50;99.90
790;DHT22;378;48.844;9.156;2024-01-30T10:11:36;6.60;99.90
790;DHT22;378;48.844;9.156;2024-01-30T10:14:03;6.70;99.90
790;DHT22;378;48.844;9.156;2024-01-30T10:16:30;6.80;99.90
790;DHT22;378;48.844;9.156;2024-01-30T10:18:58;6.90;99.90
790;DHT22;378;48.844;9.156;2024-01-30T10:21:25;7.00;99.90
790;DHT22;378;48.844;9.156;2024-01-30T10:23:52;7.00;99.90
790;DHT22;378;48.844;9.156;2024-01-30T10:26:18;7.10;99.90
790;DHT22;378;48.844;9.156;2024-01-30T10:28:45;7.20;99.90
790;DHT22;378;48.844;9.156;2024-01-30T10:31:16;7.30;99.90
790;DHT22;378;48.844;9.156;2024-01-30T10:33:44;7.30;99.90
790;DHT22;378;48.844;9.156;2024-01-30T10:36:14;7.40;99.90
790;DHT22;378;48.844;9.156;2024-01-30T10:38:42;7.50;99.90
790;DHT22;378;48.844;9.156;2024-01-30T10:41:13;7.60;99.90
790;DHT22;378;48.844;9.156;2024-01-30T10:43:42;7.60;99.90
790;DHT22;378;48.844;9.156;2024-01-30T10:46:18;7.70;99.90
790;DHT22;378;48.844;9.156;2024-01-30T10:48:51;7.70;99.90
790;DHT22;378;48.844;9.156;2024-01-30T10:51:25;7.80;99.90
790;DHT22;378;48.844;9.156;2024-01-30T10:53:53;7.80;99.90
790;DHT22;378;48.844;9.156;2024-01-30T10:56:21;7.80;99.90
790;DHT22;378;48.844;9.156;2024-01-30T10:58:48;7.90;99.90
790;DHT22;378;48.844;9.156;2024-01-30T11:01:16;7.90;99.90
790;DHT22;378;48.844;9.156;2024-01-30T11:03:44;8.10;99.90
790;DHT22;378;48.844;9.156;2024-01-30T11:06:11;8.20;99.90
790;DHT22;378;48.844;9.156;2024-01-30T11:08:40;8.30;99.90
790;DHT22;378;48.844;9.156;2024-01-30T11:11:09;8.30;99.90
790;DHT22;378;48.844;9.156;2024-01-30T11:13:36;8.30;99.90
790;DHT22;378;48.844;9.156;2024-01-30T11:16:04;8.40;99.90
790;DHT22;378;48.844;9.156;2024-01-30T11:18:33;8.40;99.90
790;DHT22;378;48.844;9.156;2024-01-30T11:21:00;8.50;99.90
790;DHT22;378;48.844;9.156;2024-01-30T11:23:28;8.50;99.90
790;DHT22;378;48.844;9.156;2024-01-30T11:25:57;8.50;99.90
790;DHT22;378;48.844;9.156;2024-01-30T11:28:24;8.60;99.90
790;DHT22;378;48.844;9.156;2024-01-30T11:30:51;8.60;99.90
790;DHT22;378;48.844;9.156;2024-01-30T11:33:28;8.70;99.90
790;DHT22;378;48.844;9.156;2024-01-30T11:35:57;8.70;99.90
790;DHT22;378;48.844;9.156;2024-01-30T11:38:26;8.80;99.90
790;DHT22;378;48.844;9.156;2024-01-30T11:40:55;8.80;99.90
790;DHT22;378;48.844;9.156;2024-01-30T11:43:23;8.80;99.90
790;DHT22;378;48.844;9.156;2024-01-30T11:45:50;8.90;99.90
790;DHT22;378;48.844;9.156;2024-01-30T11:48:17;8.90;99.90
790;DHT22;378;48.844;9.156;2024-01-30T11:50:44;8.90;99.90
790;DHT22;378;48.844;9.156;2024-01-30T11:53:11;8.90;99.90
790;DHT22;378;48.844;9.156;2024-01-30T11:55:38;8.90;99.90
790;DHT22;378;48.844;9.156;2024-01-30T11:58:06;8.90;99.90
790;DHT22;378;48.844;9.156;2024-01-30T12:00:34;8.90;99.90
790;DHT22;378;48.844;9.156;2024-01-30T12:03:01;9.00;99.90
790;DHT22;378;48.844;9.156;2024-01-30T12:05:28;9.00;99.90
790;DHT22;378;48.844;9.156;2024-01-30T12:07:56;9.00;99.90
790;DHT22;378;48.844;9.156;2024-01-30T12:10:24;9.10;99.90
790;DHT22;378;48.844;9.156;2024-01-30T12:12:52;9.10;99.90
790;DHT22;378;48.844;9.156;2024-01-30T12:15:22;9.10;99.90
790;DHT22;378;48.844;9.156;2024-01-30T12:17:49;9.10;99.90
790;DHT22;378;48.844;9.156;2024-01-30T12:20:18;9.20;99.90
790;DHT22;378;48.844;9.156;2024-01-30T12:22:48;9.20;99.90
790;DHT22;378;48.844;9.156;2024-01-30T12:25:15;9.20;99.90
790;DHT22;378;48.844;9.156;2024-01-30T12:27:44;9.30;99.90
790;DHT22;378;48.844;9.156;2024-01-30T12:30:12;9.30;99.90
790;DHT22;378;48.844;9.156;2024-01-30T12:32:41;9.30;99.90
790;DHT22;378;48.844;9.156;2024-01-30T12:35:10;9.30;99.90
790;DHT22;378;48.844;9.156;2024-01-30T12:37:37;9.40;99.90
790;DHT22;378;48.844;9.156;2024-01-30T12:40:05;9.40;99.90
790;DHT22;378;48.844;9.156;2024-01-30T12:42:35;9.40;99.90
790;DHT22;378;48.844;9.156;2024-01-30T12:45:02;9.50;99.90
790;DHT22;378;48.844;9.156;2024-01-30T12:47:29;9.50;99.90
790;DHT22;378;48.844;9.156;2024-01-30T12:49:58;9.50;99.90
790;DHT22;378;48.844;9.156;2024-01-30T12:52:25;9.60;99.90
790;DHT22;378;48.844;9.156;2024-01-30T12:54:52;9.60;99.90
790;DHT22;378;48.844;9.156;2024-01-30T12:57:20;9.70;99.90
790;DHT22;378;48.844;9.156;2024-01-30T12:59:47;9.70;99.90
790;DHT22;378;48.844;9.156;2024-01-30T13:02:15;9.80;99.90
790;DHT22;378;48.844;9.156;2024-01-30T13:04:42;9.80;99.90
790;DHT22;378;48.844;9.156;2024-01-30T13:07:11;9.80;99.90
790;DHT22;378;48.844;9.156;2024-01-30T13:09:37;9.90;99.90
790;DHT22;378;48.844;9.156;2024-01-30T13:12:05;9.90;99.90
790;DHT22;378;48.844;9.156;2024-01-30T13:14:32;9.90;99.90
790;DHT22;378;48.844;9.156;2024-01-30T13:17:02;10.00;99.90
790;DHT22;378;48.844;9.156;2024-01-30T13:19:29;10.00;99.90
790;DHT22;378;48.844;9.156;2024-01-30T13:21:56;10.10;99.90
790;DHT22;378;48.844;9.156;2024-01-30T13:24:24;10.20;99.90
790;DHT22;378;48.844;9.156;2024-01-30T13:26:51;10.20;99.90
790;DHT22;378;48.844;9.156;2024-01-30T13:29:18;10.30;99.90
790;DHT22;378;48.844;9.156;2024-01-30T13:31:45;10.30;99.90
790;DHT22;378;48.844;9.156;2024-01-30T13:34:12;10.30;99.90
790;DHT22;378;48.844;9.156;2024-01-30T13:36:40;10.30;99.90
790;DHT22;378;48.844;9.156;2024-01-30T13:39:07;10.30;99.90
790;DHT22;378;48.844;9.156;2024-01-30T13:41:41;10.30;99.90
790;DHT22;378;48.844;9.156;2024-01-30T13:44:08;10.30;99.90
790;DHT22;378;48.844;9.156;2024-01-30T13:46:36;10.40;99.90
790;DHT22;378;48.844;9.156;2024-01-30T13:49:04;10.40;99.90
790;DHT22;378;48.844;9.156;2024-01-30T13:51:32;10.40;99.90
790;DHT22;378;48.844;9.156;2024-01-30T13:53:59;10.50;99.90
790;DHT22;378;48.844;9.156;2024-01-30T13:56:26;10.50;99.90
790;DHT22;378;48.844;9.156;2024-01-30T13:58:54;10.50;99.90
790;DHT22;378;48.844;9.156;2024-01-30T14:01:22;10.50;99.90
790;DHT22;378;48.844;9.156;2024-01-30T14:03:49;10.50;99.90
790;DHT22;378;48.844;9.156;2024-01-30T14:06:16;10.50;99.90
790;DHT22;378;48.844;9.156;2024-01-30T14:08:43;10.40;99.90
790;DHT22;378;48.844;9.156;2024-01-30T14:11:10;10.40;99.90
790;DHT22;378;48.844;9.156;2024-01-30T14:13:37;10.40;99.90
790;DHT22;378;48.844;9.156;2024-01-30T14:16:05;10.40;99.90
790;DHT22;378;48.844;9.156;2024-01-30T14:18:32;10.40;99.90
790;DHT22;378;48.844;9.156;2024-01-30T14:20:59;10.30;99.90
790;DHT22;378;48.844;9.156;2024-01-30T14:23:26;10.30;99.90
790;DHT22;378;48.844;9.156;2024-01-30T14:25:53;10.30;99.90
790;DHT22;378;48.844;9.156;2024-01-30T14:28:20;10.20;99.90
790;DHT22;378;48.844;9.156;2024-01-30T14:30:47;10.20;99.90
790;DHT22;378;48.844;9.156;2024-01-30T14:33:15;10.20;99.90
790;DHT22;378;48.844;9.156;2024-01-30T14:35:42;10.20;99.90
790;DHT22;378;48.844;9.156;2024-01-30T14:38:09;10.20;99.90
790;DHT22;378;48.844;9.156;2024-01-30T14:40:35;10.10;99.90
790;DHT22;378;48.844;9.156;2024-01-30T14:43:02;10.10;99.90
790;DHT22;378;48.844;9.156;2024-01-30T14:45:30;10.10;99.90
790;DHT22;378;48.844;9.156;2024-01-30T14:47:58;10.00;99.90
790;DHT22;378;48.844;9.156;2024-01-30T14:50:26;10.00;99.90
790;DHT22;378;48.844;9.156;2024-01-30T14:52:54;10.00;99.90
790;DHT22;378;48.844;9.156;2024-01-30T14:55:21;9.90;99.90
790;DHT22;378;48.844;9.156;2024-01-30T14:57:47;9.90;99.90
790;DHT22;378;48.844;9.156;2024-01-30T15:00:15;9.90;99.90
790;DHT22;378;48.844;9.156;2024-01-30T15:02:43;9.80;99.90
790;DHT22;378;48.844;9.156;2024-01-30T15:05:10;9.80;99.90
790;DHT22;378;48.844;9.156;2024-01-30T15:07:39;9.80;99.90
790;DHT22;378;48.844;9.156;2024-01-30T15:10:07;9.80;99.90
790;DHT22;378;48.844;9.156;2024-01-30T15:12:35;9.70;99.90
790;DHT22;378;48.844;9.156;2024-01-30T15:15:02;9.80;99.90
790;DHT22;378;48.844;9.156;2024-01-30T15:17:29;9.80;99.90
790;DHT22;378;48.844;9.156;2024-01-30T15:19:55;9.80;99.90
790;DHT22;378;48.844;9.156;2024-01-30T15:22:26;9.70;99.90
790;DHT22;378;48.844;9.156;2024-01-30T15:24:54;9.70;99.90
790;DHT22;378;48.844;9.156;2024-01-30T15:27:24;9.70;99.90
790;DHT22;378;48.844;9.156;2024-01-30T15:29:51;9.70;99.90
790;DHT22;378;48.844;9.156;2024-01-30T15:32:18;9.60;99.90
790;DHT22;378;48.844;9.156;2024-01-30T15:34:45;9.60;99.90
790;DHT22;378;48.844;9.156;2024-01-30T15:37:12;9.50;99.90
790;DHT22;378;48.844;9.156;2024-01-30T15:39:39;9.50;99.90
790;DHT22;378;48.844;9.156;2024-01-30T15:42:08;9.40;99.90
790;DHT22;378;48.844;9.156;2024-01-30T15:44:34;9.40;99.90
790;DHT22;378;48.844;9.156;2024-01-30T15:47:01;9.30;99.90
790;DHT22;378;48.844;9.156;2024-01-30T15:49:31;9.30;99.90
790;DHT22;378;48.844;9.156;2024-01-30T15:51:58;9.20;99.90
790;DHT22;378;48.844;9.156;2024-01-30T15:54:24;9.20;99.90
790;DHT22;378;48.844;9.156;2024-01-30T15:56:51;9.10;99.90
790;DHT22;378;48.844;9.156;2024-01-30T15:59:19;9.10;99.90
790;DHT22;378;48.844;9.156;2024-01-30T16:01:46;9.00;99.90
790;DHT22;378;48.844;9.156;2024-01-30T16:04:15;8.90;99.90
790;DHT22;378;48.844;9.156;2024-01-30T16:06:42;8.90;99.90
790;DHT22;378;48.844;9.156;2024-01-30T16:09:09;8.90;99.90
790;DHT22;378;48.844;9.156;2024-01-30T16:11:36;8.80;99.90
790;DHT22;378;48.844;9.156;2024-01-30T16:14:04;8.80;99.90
790;DHT22;378;48.844;9.156;2024-01-30T16:16:32;8.70;99.90
790;DHT22;378;48.844;9.156;2024-01-30T16:18:59;8.70;99.90
790;DHT22;378;48.844;9.156;2024-01-30T16:21:26;8.60;99.90
790;DHT22;378;48.844;9.156;2024-01-30T16:23:53;8.60;99.90
790;DHT22;378;48.844;9.156;2024-01-30T16:26:21;8.60;99.90
790;DHT22;378;48.844;9.156;2024-01-30T16:28:48;8.60;99.90
790;DHT22;378;48.844;9.156;2024-01-30T16:31:14;8.50;99.90
790;DHT22;378;48.844;9.156;2024-01-30T16:33:47;8.50;99.90
790;DHT22;378;48.844;9.156;2024-01-30T16:36:14;8.50;99.90
790;DHT22;378;48.844;9.156;2024-01-30T16:38:41;8.50;99.90
790;DHT22;378;48.844;9.156;2024-01-30T16:41:08;8.50;99.90
790;DHT22;378;48.844;9.156;2024-01-30T16:43:35;8.40;99.90
790;DHT22;378;48.844;9.156;2024-01-30T16:46:01;8.50;99.90
790;DHT22;378;48.844;9.156;2024-01-30T16:48:28;8.50;99.90
790;DHT22;378;48.844;9.156;2024-01-30T16:50:56;8.40;99.90
790;DHT22;378;48.844;9.156;2024-01-30T16:53:23;8.40;99.90
790;DHT22;378;48.844;9.156;2024-01-30T16:55:50;8.40;99.90
790;DHT22;378;48.844;9.156;2024-01-30T16:58:17;8.40;99.90
790;DHT22;378;48.844;9.156;2024-01-30T17:00:43;8.40;99.90
790;DHT22;378;48.844;9.156;2024-01-30T17:03:10;8.40;99.90
790;DHT22;378;48.844;9.156;2024-01-30T17:05:37;8.40;99.90
790;DHT22;378;48.844;9.156;2024-01-30T17:08:06;8.40;99.90
790;DHT22;378;48.844;9.156;2024-01-30T17:10:33;8.30;99.90
790;DHT22;378;48.844;9.156;2024-01-30T17:12:59;8.40;99.90
790;DHT22;378;48.844;9.156;2024-01-30T17:15:26;8.30;99.90
790;DHT22;378;48.844;9.156;2024-01-30T17:17:53;8.30;99.90
790;DHT22;378;48.844;9.156;2024-01-30T17:20:20;8.30;99.90
790;DHT22;378;48.844;9.156;2024-01-30T17:22:48;8.30;99.90
790;DHT22;378;48.844;9.156;2024-01-30T17:25:16;8.30;99.90
790;DHT22;378;48.844;9.156;2024-01-30T17:27:43;8.30;99.90
790;DHT22;378;48.844;9.156;2024-01-30T17:30:12;8.30;99.90
790;DHT22;378;48.844;9.156;2024-01-30T17:32:39;8.20;99.90
790;DHT22;378;48.844;9.156;2024-01-30T17:35:06;8.20;99.90
790;DHT22;378;48.844;9.156;2024-01-30T17:37:33;8.20;99.90
790;DHT22;378;48.844;9.156;2024-01-30T17:40:00;8.20;99.90
790;DHT22;378;48.844;9.156;2024-01-30T17:42:28;8.20;99.90
790;DHT22;378;48.844;9.156;2024-01-30T17:44:55;8.20;99.90
790;DHT22;378;48.844;9.156;2024-01-30T17:47:22;8.20;99.90
790;DHT22;378;48.844;9.156;2024-01-30T17:49:49;8.10;99.90
790;DHT22;378;48.844;9.156;2024-01-30T17:52:16;8.10;99.90
790;DHT22;378;48.844;9.156;2024-01-30T17:54:43;8.10;99.90